Time;durP1;ratioP1;P1;durP2;ratioP2;P2;SDS_P1;SDS_P2;PMS_P1;PMS_P2;Temp;Humidity;BMP_temperature;BMP_pressure;BME280_temperature;BME280_humidity;BME280_pressure;Samples;Min_cycle;Max_cycle;Signal;HPM_P1;HPM_P2
2023/01/12 00:01:59;;;;;;;4.93;2.90;;;21.90;81.00;;;;;;6205603;28;90077;-71
2023/01/12 00:05:03;;;;;;;4.55;2.88;;;21.90;81.00;;;;;;6205861;28;89133;-69
2023/01/12 00:08:05;;;;;;;4.45;2.70;;;21.90;81.00;;;;;;6206256;28;88689;-70
2023/01/12 00:11:08;;;;;;;4.07;2.60;;;21.80;80.80;;;;;;6206949;28;89142;-71
2023/01/12 00:14:10;;;;;;;5.13;3.03;;;21.90;80.80;;;;;;6206393;28;89086;-71
2023/01/12 00:17:15;;;;;;;4.78;2.55;;;21.90;80.80;;;;;;6195163;28;89062;-70
2023/01/12 00:20:19;;;;;;;5.20;2.78;;;21.80;80.70;;;;;;6202269;28;89515;-71
2023/01/12 00:23:28;;;;;;;4.40;2.42;;;21.80;80.60;;;;;;6207121;28;88253;-70
2023/01/12 00:26:30;;;;;;;4.35;2.33;;;21.80;80.40;;;;;;6203378;28;89249;-70
2023/01/12 00:29:32;;;;;;;5.00;2.17;;;21.80;79.60;;;;;;6205837;28;87889;-70
2023/01/12 00:32:34;;;;;;;5.40;2.45;;;21.80;79.90;;;;;;6204281;28;90093;-70
2023/01/12 00:35:38;;;;;;;4.88;2.72;;;21.80;80.00;;;;;;6205264;28;87927;-70
2023/01/12 00:38:40;;;;;;;3.95;2.22;;;21.80;80.30;;;;;;6206483;28;89269;-70
2023/01/12 00:48:22;;;;;;;3.20;2.10;;;21.80;80.30;;;;;;6193182;28;89076;-70
2023/01/12 00:51:25;;;;;;;3.70;2.22;;;21.70;80.20;;;;;;6185908;28;89183;-71
2023/01/12 00:54:27;;;;;;;4.28;2.50;;;21.70;80.10;;;;;;6203718;28;88403;-70
2023/01/12 00:57:29;;;;;;;3.42;2.28;;;21.70;80.10;;;;;;6193740;28;89082;-70
2023/01/12 01:00:31;;;;;;;3.03;2.17;;;21.80;80.10;;;;;;6195263;28;89186;-70
2023/01/12 01:03:33;;;;;;;3.45;2.20;;;21.70;80.10;;;;;;6204838;28;88936;-69
2023/01/12 01:06:38;;;;;;;3.20;1.98;;;21.70;80.10;;;;;;6192215;28;89105;-70
2023/01/12 01:09:40;;;;;;;3.25;2.10;;;21.70;80.00;;;;;;6204169;28;89209;-70
2023/01/12 01:12:42;;;;;;;4.43;1.95;;;21.70;80.10;;;;;;6193822;28;89833;-70
2023/01/12 01:15:44;;;;;;;3.30;2.17;;;21.60;80.00;;;;;;6195934;28;89306;-70
2023/01/12 01:18:46;;;;;;;3.03;2.00;;;21.70;80.10;;;;;;6183156;28;89296;-70
2023/01/12 01:21:50;;;;;;;3.22;2.08;;;21.60;80.00;;;;;;6190255;28;89223;-70
2023/01/12 01:24:52;;;;;;;2.58;1.88;;;21.70;80.00;;;;;;6199085;28;88598;-71
2023/01/12 01:27:54;;;;;;;2.88;2.00;;;21.70;80.00;;;;;;6180993;28;89387;-69
2023/01/12 01:31:03;;;;;;;2.97;1.90;;;21.70;80.00;;;;;;6196856;28;89118;-71
2023/01/12 01:34:05;;;;;;;3.05;2.15;;;21.60;79.90;;;;;;6204141;28;90037;-70
2023/01/12 01:37:08;;;;;;;3.55;2.10;;;21.60;80.00;;;;;;6202680;28;89052;-70
2023/01/12 01:40:12;;;;;;;2.95;1.80;;;21.60;79.90;;;;;;6198124;28;89077;-71
2023/01/12 01:43:14;;;;;;;2.65;1.73;;;21.60;80.70;;;;;;6205348;28;89143;-70
2023/01/12 01:46:27;;;;;;;3.53;2.05;;;21.60;79.80;;;;;;6197752;28;88996;-69
2023/01/12 01:49:33;;;;;;;3.20;1.98;;;21.60;79.70;;;;;;6188182;28;89130;-69
2023/01/12 01:52:39;;;;;;;2.08;1.60;;;21.60;79.60;;;;;;6196888;28;88153;-70
2023/01/12 01:55:47;;;;;;;3.78;2.03;;;21.50;79.60;;;;;;6204376;28;88276;-70
2023/01/12 01:58:51;;;;;;;2.60;1.88;;;21.50;79.60;;;;;;6205153;28;89285;-71
2023/01/12 02:01:55;;;;;;;2.28;1.60;;;21.60;79.60;;;;;;6205255;28;89124;-70
2023/01/12 02:04:57;;;;;;;3.00;1.77;;;21.50;79.40;;;;;;6204598;28;89991;-69
2023/01/12 02:08:04;;;;;;;2.88;2.10;;;21.60;79.40;;;;;;6204858;28;89117;-70
2023/01/12 02:16:19;;;;;;;2.92;1.98;;;21.50;79.30;;;;;;6195567;28;89320;-71
2023/01/12 02:18:00;;;;;;;3.10;1.90;;;21.50;79.40;;;;;;6195537;28;87370;-71
2023/01/12 02:21:12;;;;;;;3.60;2.08;;;21.50;79.50;;;;;;6189064;28;88944;-71
2023/01/12 02:24:52;;;;;;;3.10;2.20;;;21.50;79.50;;;;;;6201915;28;87871;-70
2023/01/12 02:28:31;;;;;;;3.25;1.98;;;21.50;79.50;;;;;;6199790;28;88542;-69
2023/01/12 02:31:43;;;;;;;3.13;2.00;;;21.40;79.50;;;;;;6201805;28;89543;-70
2023/01/12 02:34:54;;;;;;;3.40;2.22;;;21.40;79.50;;;;;;6204752;28;89033;-71
2023/01/12 02:38:08;;;;;;;2.78;2.13;;;21.40;79.50;;;;;;6206555;28;89191;-71
2023/01/12 02:42:39;;;;;;;3.13;2.25;;;21.50;79.60;;;;;;6205094;28;89342;-71
2023/01/12 02:44:54;;;;;;;3.70;2.60;;;21.50;79.50;;;;;;6198532;28;88379;-70
2023/01/12 02:48:06;;;;;;;3.78;2.40;;;21.40;79.50;;;;;;6203017;28;87926;-70
2023/01/12 02:51:15;;;;;;;3.13;2.30;;;21.40;79.50;;;;;;6205590;28;89022;-71
2023/01/12 02:54:20;;;;;;;2.53;2.28;;;21.40;79.50;;;;;;6208122;28;89299;-70
2023/01/12 02:57:25;;;;;;;3.22;2.60;;;21.40;79.60;;;;;;6207538;28;89587;-70
2023/01/12 03:00:28;;;;;;;3.50;2.50;;;21.40;79.50;;;;;;6208979;28;88740;-70
2023/01/12 03:03:34;;;;;;;3.20;2.47;;;21.40;79.60;;;;;;6201673;28;89113;-70
2023/01/12 03:06:44;;;;;;;3.47;2.63;;;21.40;79.60;;;;;;6208030;28;89241;-70
2023/01/12 03:09:52;;;;;;;3.92;2.60;;;21.30;79.50;;;;;;6203282;28;90049;-70
2023/01/12 03:12:56;;;;;;;3.70;2.80;;;21.30;79.50;;;;;;6208141;28;89060;-71
2023/01/12 03:16:01;;;;;;;4.00;2.80;;;21.30;79.40;;;;;;6207037;28;89201;-70
2023/01/12 03:19:08;;;;;;;3.08;2.50;;;21.40;79.40;;;;;;6206831;28;87957;-70
2023/01/12 03:22:13;;;;;;;3.70;2.97;;;21.30;79.40;;;;;;6203232;28;89142;-69
2023/01/12 03:25:18;;;;;;;3.25;2.83;;;21.30;79.40;;;;;;6206869;28;89512;-70
2023/01/12 03:28:22;;;;;;;3.90;3.15;;;21.30;79.50;;;;;;6192534;28;88329;-70
2023/01/12 03:31:25;;;;;;;3.80;3.00;;;21.30;79.40;;;;;;6197393;28;88578;-70
2023/01/12 03:34:28;;;;;;;3.90;2.80;;;21.30;79.50;;;;;;6194097;28;89092;-70
2023/01/12 03:37:34;;;;;;;3.28;2.97;;;21.30;79.50;;;;;;6194882;28;87981;-70
2023/01/12 03:40:43;;;;;;;3.28;2.97;;;21.30;79.50;;;;;;6206093;28;90025;-70
2023/01/12 03:43:50;;;;;;;4.15;3.15;;;21.20;79.40;;;;;;6206815;28;89163;-70
2023/01/12 03:46:58;;;;;;;4.00;3.25;;;21.20;79.50;;;;;;6202291;28;89505;-70
2023/01/12 03:50:06;;;;;;;3.80;3.33;;;21.30;79.50;;;;;;6198095;28;89038;-71
2023/01/12 03:53:10;;;;;;;4.80;3.80;;;21.30;79.40;;;;;;6205591;28;89159;-71
2023/01/12 03:56:14;;;;;;;3.97;3.15;;;21.30;79.40;;;;;;6207640;28;89198;-69
2023/01/12 03:59:16;;;;;;;5.18;3.65;;;21.20;79.30;;;;;;6205659;28;89367;-70
2023/01/12 04:02:18;;;;;;;5.22;3.90;;;21.20;79.40;;;;;;6205704;28;88273;-70
2023/01/12 04:05:21;;;;;;;3.83;3.42;;;21.20;79.40;;;;;;6207246;28;89094;-70
2023/01/12 04:08:24;;;;;;;3.85;3.45;;;21.20;79.40;;;;;;6194421;28;88964;-70
2023/01/12 04:14:47;;;;;;;4.15;3.67;;;21.20;79.40;;;;;;6206046;28;87440;-70
2023/01/12 04:17:49;;;;;;;3.90;3.30;;;21.20;79.40;;;;;;6206271;28;89186;-70
2023/01/12 04:20:52;;;;;;;3.67;3.22;;;21.20;79.40;;;;;;6206787;28;89072;-69
2023/01/12 04:23:54;;;;;;;5.38;3.60;;;21.20;79.40;;;;;;6204302;28;89204;-70
2023/01/12 04:26:56;;;;;;;3.90;3.50;;;21.20;79.40;;;;;;6205304;28;89109;-71
2023/01/12 04:29:58;;;;;;;3.92;3.42;;;21.20;79.30;;;;;;6205749;28;89195;-70
2023/01/12 04:33:05;;;;;;;4.35;3.60;;;21.20;79.30;;;;;;6204630;28;88706;-69
2023/01/12 04:36:10;;;;;;;4.30;3.78;;;21.20;79.20;;;;;;6204507;28;89168;-69
2023/01/12 04:39:12;;;;;;;4.00;3.50;;;21.20;79.00;;;;;;6194433;28;88868;-70
2023/01/12 04:45:32;;;;;;;3.85;3.45;;;21.20;79.00;;;;;;6203702;28;88728;-69
2023/01/12 04:48:34;;;;;;;3.78;3.47;;;21.20;79.00;;;;;;6205921;28;89116;-70
2023/01/12 04:51:37;;;;;;;4.05;3.60;;;21.20;78.90;;;;;;6192524;28;89084;-71
2023/01/12 04:54:39;;;;;;;3.85;3.45;;;21.20;78.80;;;;;;6205374;28;90250;-70
2023/01/12 04:57:41;;;;;;;4.43;3.97;;;21.20;78.80;;;;;;6205687;28;89067;-70
2023/01/12 05:00:43;;;;;;;4.70;4.15;;;21.20;78.80;;;;;;6204529;28;89583;-71
2023/01/12 05:03:46;;;;;;;3.63;3.30;;;21.20;78.80;;;;;;6206718;28;88403;-70
2023/01/12 05:06:49;;;;;;;4.30;3.53;;;21.30;78.80;;;;;;6206810;28;88679;-71
2023/01/12 05:13:11;;;;;;;4.15;3.70;;;21.30;78.80;;;;;;6197784;28;90573;-71
2023/01/12 05:16:15;;;;;;;4.57;3.83;;;21.30;78.70;;;;;;6202934;28;89145;-69
2023/01/12 05:19:17;;;;;;;3.75;3.45;;;21.30;78.70;;;;;;6206292;28;89057;-70
2023/01/12 05:22:21;;;;;;;5.13;4.10;;;21.30;78.60;;;;;;6199868;28;87891;-71
2023/01/12 05:25:23;;;;;;;4.13;3.67;;;21.40;78.70;;;;;;6203714;28;89157;-70
2023/01/12 05:28:25;;;;;;;4.40;3.63;;;21.40;78.70;;;;;;6193081;28;89262;-70
2023/01/12 05:31:27;;;;;;;4.10;3.60;;;21.40;78.60;;;;;;6195403;28;89007;-70
2023/01/12 05:34:29;;;;;;;4.38;3.80;;;21.40;78.50;;;;;;6204988;28;87243;-71
2023/01/12 05:37:32;;;;;;;4.10;3.40;;;21.50;78.60;;;;;;6204501;28;89069;-69
2023/01/12 05:40:34;;;;;;;3.83;3.42;;;21.50;78.60;;;;;;6203605;28;89080;-70
2023/01/12 05:43:53;;;;;;;3.50;3.20;;;21.50;78.50;;;;;;6205380;28;90362;-70
2023/01/12 05:46:55;;;;;;;3.95;3.50;;;21.50;78.50;;;;;;6206990;28;89069;-70
2023/01/12 05:49:57;;;;;;;3.67;3.25;;;21.50;78.40;;;;;;6209024;28;89130;-70
2023/01/12 05:53:01;;;;;;;3.97;3.25;;;21.50;78.40;;;;;;6205674;28;89072;-71
2023/01/12 05:56:06;;;;;;;3.88;3.40;;;21.50;78.40;;;;;;6208731;28;87975;-70
2023/01/12 05:59:11;;;;;;;5.05;4.00;;;21.60;78.60;;;;;;6207215;28;89056;-71
2023/01/12 06:02:16;;;;;;;4.10;3.40;;;21.60;78.60;;;;;;6209102;28;89167;-70
2023/01/12 06:05:18;;;;;;;3.58;3.28;;;21.60;78.50;;;;;;6209970;28;88433;-70
2023/01/12 06:08:22;;;;;;;3.55;3.22;;;21.60;79.30;;;;;;6209042;28;87809;-70
2023/01/12 06:14:44;;;;;;;5.60;3.35;;;21.60;78.40;;;;;;6198892;28;90515;-70
2023/01/12 06:17:46;;;;;;;3.88;3.28;;;21.60;78.40;;;;;;6199977;28;89030;-70
2023/01/12 06:20:48;;;;;;;4.32;3.40;;;21.60;78.40;;;;;;6203655;28;89080;-70
2023/01/12 06:23:52;;;;;;;3.80;3.40;;;21.60;78.40;;;;;;6201926;28;89167;-71
2023/01/12 06:26:54;;;;;;;3.83;3.17;;;21.60;78.40;;;;;;6208162;28;89365;-70
2023/01/12 06:29:56;;;;;;;3.63;3.03;;;21.60;78.40;;;;;;6208828;28;89358;-71
2023/01/12 06:33:02;;;;;;;3.50;3.00;;;21.60;78.30;;;;;;6208904;28;87962;-71
2023/01/12 06:36:05;;;;;;;4.13;3.20;;;21.60;78.30;;;;;;6209419;28;88381;-70
2023/01/12 06:39:09;;;;;;;3.90;3.10;;;21.60;78.30;;;;;;6208466;28;89031;-70
2023/01/12 06:42:28;;;;;;;4.32;3.42;;;21.60;78.30;;;;;;6208185;28;88991;-71
2023/01/12 06:45:30;;;;;;;3.83;3.10;;;21.60;78.30;;;;;;6207083;28;90516;-71
2023/01/12 06:48:32;;;;;;;4.03;3.33;;;21.70;78.30;;;;;;6208006;28;89206;-71
2023/01/12 06:51:35;;;;;;;3.30;2.92;;;21.70;78.30;;;;;;6209494;28;89179;-71
2023/01/12 06:54:38;;;;;;;4.00;2.90;;;21.70;78.20;;;;;;6195373;28;89503;-70
2023/01/12 06:57:40;;;;;;;3.17;2.88;;;21.70;78.20;;;;;;6206872;28;89222;-71
2023/01/12 07:00:42;;;;;;;3.30;2.90;;;21.70;78.10;;;;;;6207677;28;91311;-71
2023/01/12 07:03:45;;;;;;;3.22;2.92;;;21.70;78.10;;;;;;6208730;28;89850;-71
2023/01/12 07:06:48;;;;;;;3.55;3.08;;;21.70;78.00;;;;;;6196603;28;88287;-71
2023/01/12 07:09:51;;;;;;;3.88;2.95;;;21.70;78.00;;;;;;6207699;28;89132;-70
2023/01/12 07:12:53;;;;;;;3.10;2.80;;;21.70;78.00;;;;;;6206995;28;87952;-71
2023/01/12 07:15:57;;;;;;;3.83;3.00;;;21.70;78.10;;;;;;6195124;28;90039;-71
2023/01/12 07:18:59;;;;;;;3.65;3.13;;;21.70;77.90;;;;;;6206862;28;88000;-71
2023/01/12 07:22:01;;;;;;;3.92;3.00;;;21.80;78.10;;;;;;6199778;28;89789;-70
2023/01/12 07:25:06;;;;;;;3.33;3.03;;;21.70;77.90;;;;;;6199331;28;88940;-70
2023/01/12 07:28:09;;;;;;;3.30;3.00;;;21.70;77.90;;;;;;6202040;28;89132;-69
2023/01/12 07:31:11;;;;;;;3.80;3.10;;;21.80;78.00;;;;;;6208215;28;89113;-70
2023/01/12 07:34:13;;;;;;;3.47;2.92;;;21.70;77.90;;;;;;6197547;28;89079;-70
2023/01/12 07:37:15;;;;;;;3.15;2.85;;;21.80;78.00;;;;;;6204718;28;88363;-70
2023/01/12 07:40:18;;;;;;;3.20;2.90;;;21.80;78.00;;;;;;6204620;28;89084;-70
2023/01/12 07:43:20;;;;;;;3.25;2.95;;;21.80;78.00;;;;;;6201029;28;88994;-70
2023/01/12 07:46:22;;;;;;;3.60;3.15;;;21.80;78.00;;;;;;6199053;28;90114;-70
2023/01/12 07:49:25;;;;;;;3.28;2.70;;;21.70;77.90;;;;;;6199624;28;89231;-70
2023/01/12 07:52:27;;;;;;;3.05;2.72;;;21.80;78.00;;;;;;6205779;28;89417;-70
2023/01/12 07:55:31;;;;;;;2.80;2.40;;;21.80;78.00;;;;;;6207468;28;89065;-70
2023/01/12 07:58:33;;;;;;;3.28;2.80;;;21.80;77.90;;;;;;6206396;28;89100;-70
2023/01/12 08:01:35;;;;;;;3.00;2.70;;;21.80;77.90;;;;;;6207241;28;89475;-71
2023/01/12 08:04:37;;;;;;;3.08;2.78;;;21.80;77.90;;;;;;6206971;28;88029;-70
2023/01/12 08:07:39;;;;;;;3.05;2.75;;;21.80;77.90;;;;;;6205674;28;88334;-70
2023/01/12 08:10:46;;;;;;;3.10;2.80;;;21.90;77.90;;;;;;6206761;28;89261;-71
2023/01/12 08:13:48;;;;;;;3.17;2.60;;;21.90;77.90;;;;;;6206669;28;89038;-70
2023/01/12 08:16:52;;;;;;;4.03;2.60;;;21.90;77.90;;;;;;6204976;28;90027;-70
2023/01/12 08:19:59;;;;;;;3.05;2.75;;;21.90;77.90;;;;;;6206179;28;89576;-71
2023/01/12 08:23:06;;;;;;;3.30;2.67;;;21.80;77.80;;;;;;6206254;28;89166;-70
2023/01/12 08:26:13;;;;;;;2.65;2.45;;;21.90;77.80;;;;;;6206308;28;87835;-71
2023/01/12 08:29:20;;;;;;;2.67;2.47;;;21.90;77.80;;;;;;6205534;28;89039;-70
2023/01/12 08:32:23;;;;;;;2.90;2.60;;;21.90;77.90;;;;;;6198358;28;89459;-70
2023/01/12 08:35:27;;;;;;;3.15;2.50;;;21.90;77.90;;;;;;6196394;28;89160;-70
2023/01/12 08:38:30;;;;;;;2.50;2.30;;;21.90;77.80;;;;;;6188691;28;88364;-70
2023/01/12 08:41:36;;;;;;;3.28;2.55;;;21.90;77.90;;;;;;6204488;28;89108;-70
2023/01/12 08:44:38;;;;;;;2.50;2.30;;;21.90;77.80;;;;;;6205863;28;89192;-70
2023/01/12 08:47:43;;;;;;;2.42;2.22;;;21.90;77.80;;;;;;6205517;28;90136;-70
2023/01/12 08:50:45;;;;;;;3.13;2.53;;;21.90;77.80;;;;;;6199952;28;89237;-70
2023/01/12 08:53:47;;;;;;;2.47;2.20;;;21.90;77.70;;;;;;6199428;28;89437;-70
2023/01/12 08:56:52;;;;;;;2.35;2.15;;;21.90;77.70;;;;;;6205699;28;89059;-69
2023/01/12 08:59:54;;;;;;;3.08;2.40;;;21.90;77.70;;;;;;6197993;28;88994;-71
2023/01/12 09:02:56;;;;;;;2.83;2.45;;;22.00;78.70;;;;;;6205929;28;89077;-70
2023/01/12 09:05:58;;;;;;;2.70;2.40;;;22.00;77.70;;;;;;6206205;28;88837;-70
2023/01/12 09:09:02;;;;;;;2.50;2.25;;;21.90;77.70;;;;;;6205860;28;88431;-70
2023/01/12 09:12:06;;;;;;;2.17;1.98;;;22.00;77.80;;;;;;6204581;28;89121;-70
2023/01/12 09:15:09;;;;;;;2.80;2.58;;;22.00;77.80;;;;;;6205270;28;89113;-70
2023/01/12 09:18:11;;;;;;;2.45;2.25;;;22.00;77.70;;;;;;6205931;28;90055;-70
2023/01/12 09:21:15;;;;;;;2.55;2.35;;;22.00;77.80;;;;;;6196732;28;89414;-70
2023/01/12 09:24:17;;;;;;;2.40;2.20;;;22.00;77.80;;;;;;6209812;28;89103;-70
2023/01/12 09:27:20;;;;;;;2.58;2.38;;;22.00;77.80;;;;;;6202893;28;89065;-70
2023/01/12 09:30:22;;;;;;;2.53;2.30;;;22.00;77.80;;;;;;6208833;28;89008;-70
2023/01/12 09:33:25;;;;;;;2.53;2.33;;;22.00;77.80;;;;;;6208120;28;89744;-71
2023/01/12 09:36:28;;;;;;;2.53;2.33;;;22.00;77.80;;;;;;6209574;28;88216;-70
2023/01/12 09:39:30;;;;;;;2.63;2.40;;;22.00;77.80;;;;;;6208635;28;88479;-71
2023/01/12 09:49:14;;;;;;;2.40;2.20;;;22.00;77.70;;;;;;6203983;28;88256;-71
2023/01/12 09:52:19;;;;;;;2.67;2.47;;;22.00;77.80;;;;;;6208818;28;89056;-70
2023/01/12 09:55:23;;;;;;;2.40;2.20;;;22.00;77.80;;;;;;6209256;28;89315;-70
2023/01/12 09:58:41;;;;;;;2.30;2.10;;;22.00;77.90;;;;;;6210051;28;88103;-71
2023/01/12 10:01:43;;;;;;;2.60;2.35;;;22.00;77.90;;;;;;6198345;28;89099;-70
2023/01/12 10:04:48;;;;;;;2.13;1.92;;;22.00;77.90;;;;;;6209045;28;91355;-70
2023/01/12 10:07:52;;;;;;;2.20;2.00;;;22.00;77.90;;;;;;6208317;28;89675;-70
2023/01/12 10:11:07;;;;;;;2.38;2.13;;;22.00;77.90;;;;;;6209254;28;88368;-70
2023/01/12 10:14:51;;;;;;;2.08;1.88;;;22.00;77.90;;;;;;6208687;28;89019;-70
2023/01/12 10:18:00;;;;;;;2.55;2.17;;;22.00;77.90;;;;;;6198658;28;89097;-70
2023/01/12 10:21:03;;;;;;;2.20;2.00;;;22.00;77.90;;;;;;6208441;28;90132;-70
2023/01/12 10:24:11;;;;;;;2.20;2.00;;;22.00;77.90;;;;;;6207127;28;88997;-70
2023/01/12 10:27:16;;;;;;;2.30;2.10;;;22.00;77.90;;;;;;6208179;28;89144;-70
2023/01/12 10:30:20;;;;;;;2.30;2.10;;;22.00;77.90;;;;;;6203396;28;89325;-70
2023/01/12 10:33:26;;;;;;;2.58;2.22;;;22.00;77.90;;;;;;6198081;28;88029;-71
2023/01/12 10:36:29;;;;;;;2.30;2.10;;;22.10;77.90;;;;;;6207399;28;89043;-69
2023/01/12 10:39:33;;;;;;;2.42;2.17;;;22.10;77.90;;;;;;6197369;28;87910;-70
2023/01/12 10:46:09;;;;;;;2.20;2.00;;;22.00;77.90;;;;;;6196165;28;87432;-71
2023/01/12 10:49:21;;;;;;;2.20;1.98;;;22.10;77.90;;;;;;6203478;28;88006;-70
2023/01/12 10:52:37;;;;;;;2.72;2.17;;;22.10;77.90;;;;;;6205356;28;90112;-70
2023/01/12 10:55:41;;;;;;;2.83;2.15;;;22.10;77.90;;;;;;6199224;28;89156;-70
2023/01/12 10:58:44;;;;;;;1.73;1.63;;;22.10;77.90;;;;;;6197664;28;89060;-69
2023/01/12 11:01:49;;;;;;;2.20;2.00;;;22.10;77.80;;;;;;6207826;28;89076;-70
2023/01/12 11:04:54;;;;;;;2.10;1.90;;;22.10;77.80;;;;;;6208229;28;88987;-70
2023/01/12 11:07:57;;;;;;;2.10;1.90;;;22.10;77.80;;;;;;6207448;28;88880;-70
2023/01/12 11:11:16;;;;;;;2.17;1.90;;;22.10;77.80;;;;;;6206631;28;89030;-70
2023/01/12 11:14:25;;;;;;;2.13;1.83;;;22.10;77.80;;;;;;6208424;28;88359;-70
2023/01/12 11:17:47;;;;;;;2.00;1.80;;;22.10;77.80;;;;;;6206778;28;89121;-69
2023/01/12 11:20:54;;;;;;;2.08;1.88;;;22.10;77.80;;;;;;6202116;28;88980;-71
2023/01/12 11:24:02;;;;;;;2.08;1.83;;;22.10;77.70;;;;;;6205791;28;90062;-70
2023/01/12 11:27:14;;;;;;;2.00;1.80;;;22.10;77.70;;;;;;6194923;28;88986;-70
2023/01/12 11:30:20;;;;;;;2.38;2.03;;;22.10;77.70;;;;;;6206967;28;89048;-70
2023/01/12 11:33:28;;;;;;;2.33;2.03;;;22.10;77.70;;;;;;6203261;28;89129;-70
2023/01/12 11:36:39;;;;;;;2.30;1.98;;;22.10;77.70;;;;;;6207028;28;89138;-70
2023/01/12 11:39:44;;;;;;;1.85;1.73;;;22.10;77.70;;;;;;6207468;28;89128;-71
2023/01/12 11:46:17;;;;;;;2.05;1.85;;;22.10;77.70;;;;;;6194602;28;88706;-70
2023/01/12 11:49:27;;;;;;;2.25;1.65;;;22.10;77.60;;;;;;6195718;28;89094;-70
2023/01/12 11:52:31;;;;;;;1.90;1.67;;;22.10;77.60;;;;;;6197505;28;89079;-71
2023/01/12 11:55:55;;;;;;;2.25;2.05;;;22.20;77.70;;;;;;6205911;28;89411;-68
2023/01/12 11:59:06;;;;;;;2.00;1.80;;;22.20;77.70;;;;;;6198239;28;87795;-70
2023/01/12 12:02:21;;;;;;;2.58;1.92;;;22.10;77.60;;;;;;6206233;28;88360;-69
2023/01/12 12:05:37;;;;;;;2.08;1.75;;;22.10;77.60;;;;;;6207037;28;88994;-69
2023/01/12 12:08:49;;;;;;;2.20;1.95;;;22.10;77.60;;;;;;6205398;28;89162;-69
2023/01/12 12:11:58;;;;;;;1.80;1.67;;;22.10;77.60;;;;;;6197663;28;89363;-69
2023/01/12 12:15:19;;;;;;;2.25;1.80;;;22.10;77.60;;;;;;6205817;28;89077;-69
2023/01/12 12:18:34;;;;;;;2.22;1.85;;;22.20;77.70;;;;;;6204425;28;88330;-69
2023/01/12 12:21:50;;;;;;;1.67;1.58;;;22.10;77.70;;;;;;6206614;28;89073;-69
2023/01/12 12:25:17;;;;;;;1.92;1.70;;;22.10;77.60;;;;;;6198667;28;87929;-70
2023/01/12 12:28:57;;;;;;;2.10;1.90;;;22.20;77.70;;;;;;6194445;28;89869;-70
2023/01/12 12:32:11;;;;;;;1.58;1.48;;;22.10;77.60;;;;;;6198824;28;89175;-70
2023/01/12 12:35:28;;;;;;;1.40;1.30;;;22.20;77.70;;;;;;6206184;28;89046;-69
2023/01/12 12:38:45;;;;;;;1.83;1.63;;;22.20;77.70;;;;;;6206130;28;89084;-69
2023/01/12 12:45:30;;;;;;;1.90;1.65;;;22.10;77.70;;;;;;6205807;28;88705;-70
2023/01/12 12:48:42;;;;;;;2.72;2.03;;;22.10;77.70;;;;;;6202404;28;88003;-69
2023/01/12 12:51:45;;;;;;;1.73;1.42;;;22.20;77.70;;;;;;6197459;28;88345;-70
2023/01/12 12:54:50;;;;;;;1.90;1.70;;;22.10;77.70;;;;;;6197169;28;89244;-70
2023/01/12 12:58:05;;;;;;;1.85;1.73;;;22.10;77.60;;;;;;6200925;28;89039;-69
2023/01/12 13:01:43;;;;;;;2.05;1.80;;;22.10;77.70;;;;;;6202686;28;89949;-69
2023/01/12 13:05:09;;;;;;;1.75;1.65;;;22.10;77.60;;;;;;6205455;28;88706;-69
2023/01/12 13:08:21;;;;;;;1.50;1.40;;;22.20;77.70;;;;;;6190628;28;89223;-70
2023/01/12 13:11:52;;;;;;;1.55;1.45;;;22.20;77.70;;;;;;6205115;28;89177;-70
2023/01/12 13:15:24;;;;;;;1.80;1.70;;;22.20;77.70;;;;;;6194967;28;88962;-69
2023/01/12 13:18:42;;;;;;;1.65;1.50;;;22.20;77.70;;;;;;6196735;28;89257;-68
2023/01/12 13:21:57;;;;;;;1.67;1.58;;;22.20;77.70;;;;;;6204659;28;89226;-69
2023/01/12 13:25:01;;;;;;;1.75;1.63;;;22.10;77.60;;;;;;6196265;28;88377;-69
2023/01/12 13:28:19;;;;;;;2.63;1.60;;;22.20;77.70;;;;;;6205455;28;89363;-68
2023/01/12 13:31:32;;;;;;;2.00;1.80;;;22.10;77.60;;;;;;6194822;28;87994;-70
2023/01/12 13:34:45;;;;;;;1.60;1.50;;;22.20;78.60;;;;;;6194031;28;90049;-69
2023/01/12 13:37:54;;;;;;;1.73;1.60;;;22.20;77.60;;;;;;6194032;28;89451;-69
2023/01/12 13:41:03;;;;;;;1.70;1.60;;;22.20;77.60;;;;;;6193735;28;89077;-70
2023/01/12 13:44:09;;;;;;;1.83;1.60;;;22.20;77.70;;;;;;6205031;28;89556;-70
2023/01/12 13:47:19;;;;;;;1.80;1.70;;;22.20;77.70;;;;;;6201658;28;88802;-69
2023/01/12 13:50:23;;;;;;;1.85;1.65;;;22.20;77.70;;;;;;6199769;28;89118;-69
2023/01/12 13:53:27;;;;;;;1.60;1.50;;;22.20;77.70;;;;;;6195318;28;89063;-70
2023/01/12 13:56:30;;;;;;;1.77;1.67;;;22.20;77.70;;;;;;6202881;28;88384;-70
2023/01/12 13:59:33;;;;;;;1.73;1.60;;;22.20;77.70;;;;;;6205389;28;89115;-68
2023/01/12 14:02:40;;;;;;;1.75;1.50;;;22.20;77.70;;;;;;6203509;28;89126;-69
2023/01/12 14:06:04;;;;;;;1.88;1.60;;;22.20;77.70;;;;;;6206856;28;91570;-69
2023/01/12 14:09:17;;;;;;;1.98;1.52;;;22.20;77.60;;;;;;6209220;28;88976;-70
2023/01/12 14:12:35;;;;;;;1.60;1.50;;;22.20;77.70;;;;;;6208434;28;89067;-71
2023/01/12 14:18:59;;;;;;;1.85;1.60;;;22.20;77.70;;;;;;6209005;28;87225;-69
2023/01/12 14:22:03;;;;;;;2.00;1.70;;;22.20;77.70;;;;;;6200277;28;89540;-69
2023/01/12 14:25:17;;;;;;;1.60;1.50;;;22.20;77.70;;;;;;6208978;28;89090;-70
2023/01/12 14:28:23;;;;;;;2.78;2.10;;;22.20;77.70;;;;;;6207719;28;88388;-69
2023/01/12 14:31:31;;;;;;;1.60;1.50;;;22.20;77.70;;;;;;6209045;28;89070;-70
2023/01/12 14:34:36;;;;;;;1.50;1.40;;;22.20;77.70;;;;;;6197559;28;89194;-68
2023/01/12 14:37:38;;;;;;;1.58;1.48;;;22.20;77.70;;;;;;6195824;28;90123;-68
2023/01/12 14:40:47;;;;;;;1.45;1.35;;;22.20;77.70;;;;;;6206878;28;89377;-69
2023/01/12 14:47:24;;;;;;;1.70;1.60;;;22.20;77.70;;;;;;6172948;28;88391;-69
2023/01/12 14:50:28;;;;;;;1.95;1.42;;;22.20;77.70;;;;;;6207539;28;89062;-70
2023/01/12 14:53:35;;;;;;;1.80;1.70;;;22.20;77.70;;;;;;6207288;28;89034;-69
2023/01/12 14:56:41;;;;;;;1.63;1.52;;;22.20;77.60;;;;;;6207897;28;89119;-69
2023/01/12 14:59:46;;;;;;;1.60;1.50;;;22.20;77.70;;;;;;6205450;28;88074;-69
2023/01/12 15:02:51;;;;;;;1.60;1.50;;;22.20;77.70;;;;;;6195412;28;89050;-69
2023/01/12 15:05:54;;;;;;;1.52;1.35;;;22.20;77.60;;;;;;6207257;28;89074;-70
2023/01/12 15:09:00;;;;;;;1.60;1.25;;;22.20;77.70;;;;;;6207696;28;90249;-68
2023/01/12 15:12:40;;;;;;;1.60;1.50;;;22.20;78.60;;;;;;6207400;28;89121;-70
2023/01/12 15:25:46;;;;;;;1.80;1.60;;;22.20;77.70;;;;;;6202040;28;87383;-70
2023/01/12 15:28:49;;;;;;;1.70;1.40;;;22.20;77.60;;;;;;6206679;28;89151;-69
2023/01/12 15:31:51;;;;;;;1.40;1.30;;;22.20;77.70;;;;;;6206777;28;88646;-70
2023/01/12 15:34:53;;;;;;;1.60;1.50;;;22.20;77.70;;;;;;6206879;28;89036;-69
2023/01/12 15:37:58;;;;;;;1.50;1.40;;;22.20;77.70;;;;;;6207693;28;89204;-70
2023/01/12 15:41:00;;;;;;;1.50;1.40;;;22.10;77.70;;;;;;6205475;28;89948;-70
2023/01/12 15:44:02;;;;;;;1.55;1.40;;;22.20;77.80;;;;;;6206345;28;87940;-70
2023/01/12 15:47:05;;;;;;;1.63;1.50;;;22.10;77.80;;;;;;6207004;28;89090;-70
2023/01/12 15:50:08;;;;;;;1.50;1.40;;;22.10;77.90;;;;;;6198626;28;89334;-70
2023/01/12 15:53:16;;;;;;;1.50;1.40;;;22.10;77.90;;;;;;6206848;28;89062;-69
2023/01/12 15:56:18;;;;;;;1.30;1.20;;;22.10;77.90;;;;;;6199378;28;89137;-69
2023/01/12 15:59:20;;;;;;;1.48;1.38;;;22.10;77.90;;;;;;6206561;28;89011;-69
2023/01/12 16:02:29;;;;;;;1.55;1.45;;;22.10;77.90;;;;;;6194030;28;88494;-69
2023/01/12 16:05:32;;;;;;;1.98;1.60;;;22.10;77.90;;;;;;6206436;28;89065;-69
2023/01/12 16:08:35;;;;;;;1.90;1.70;;;22.10;77.90;;;;;;6207012;28;89317;-69
2023/01/12 16:11:37;;;;;;;1.50;1.40;;;22.10;77.90;;;;;;6206173;28;89956;-69
2023/01/12 16:14:39;;;;;;;1.58;1.48;;;22.10;77.90;;;;;;6205898;28;89217;-69
2023/01/12 16:17:42;;;;;;;1.60;1.50;;;22.10;77.90;;;;;;6205914;28;89155;-69
2023/01/12 16:20:44;;;;;;;1.92;1.60;;;22.10;77.80;;;;;;6200778;28;88320;-69
2023/01/12 16:23:47;;;;;;;1.80;1.50;;;22.10;77.80;;;;;;6199656;28;89019;-69
2023/01/12 16:26:49;;;;;;;2.42;2.00;;;22.10;77.70;;;;;;6205055;28;89193;-70
2023/01/12 16:29:51;;;;;;;1.80;1.70;;;22.10;77.70;;;;;;6206717;28;87997;-70
2023/01/12 16:32:53;;;;;;;2.20;1.60;;;22.10;77.70;;;;;;6194082;28;88717;-72
2023/01/12 16:35:56;;;;;;;1.70;1.60;;;22.10;77.70;;;;;;6205538;28;89202;-71
2023/01/12 16:38:59;;;;;;;1.73;1.63;;;22.10;77.70;;;;;;6206683;28;88311;-71
2023/01/12 16:42:03;;;;;;;1.90;1.70;;;22.10;77.60;;;;;;6205319;28;89744;-71
2023/01/12 16:45:06;;;;;;;2.10;1.90;;;22.10;77.60;;;;;;6205732;28;89258;-71
2023/01/12 16:48:08;;;;;;;2.05;1.90;;;22.10;77.60;;;;;;6206092;28;89380;-72
2023/01/12 16:51:11;;;;;;;2.40;1.80;;;22.20;78.50;;;;;;6205906;28;89110;-72
2023/01/12 16:54:15;;;;;;;1.70;1.60;;;22.10;77.60;;;;;;6205896;28;89080;-71
2023/01/12 16:57:17;;;;;;;2.13;1.92;;;22.10;77.50;;;;;;6205740;28;89320;-71
2023/01/12 17:00:20;;;;;;;2.30;1.88;;;22.10;77.60;;;;;;6206457;28;89304;-72
2023/01/12 17:03:22;;;;;;;1.88;1.77;;;22.10;77.50;;;;;;6190866;28;88304;-72
2023/01/12 17:06:26;;;;;;;1.88;1.77;;;22.10;77.60;;;;;;6205094;28;89348;-71
2023/01/12 17:09:30;;;;;;;2.28;1.85;;;22.20;77.60;;;;;;6199765;28;89424;-71